createdAt,value
2023-03-07T00:00:32.649Z,-0.80
2023-03-07T00:08:52.690Z,-0.91
2023-03-07T00:12:54.632Z,-0.95
2023-03-07T00:16:56.554Z,-0.95
2023-03-07T00:21:00.130Z,-0.88
2023-03-07T00:25:02.225Z,-0.93
2023-03-07T00:29:04.146Z,-1.01
2023-03-07T00:33:06.145Z,-1.09
2023-03-07T00:37:08.234Z,-1.09
2023-03-07T00:41:13.848Z,-1.13
2023-03-07T00:45:15.914Z,-1.15
2023-03-07T00:49:18.023Z,-1.05
2023-03-07T00:53:20.693Z,-0.96
2023-03-07T00:57:22.698Z,-1.01
2023-03-07T01:01:25.810Z,-1.06
2023-03-07T01:05:28.437Z,-1.10
2023-03-07T01:09:30.423Z,-1.03
2023-03-07T01:13:33.807Z,-1.24
2023-03-07T01:17:35.805Z,-1.41
2023-03-07T01:21:40.535Z,-1.43
2023-03-07T01:25:43.724Z,-1.49
2023-03-07T01:29:46.239Z,-1.54
2023-03-07T01:33:50.664Z,-1.52
2023-03-07T01:37:54.261Z,-1.64
2023-03-07T01:41:56.333Z,-1.57
2023-03-07T01:46:17.482Z,-1.71
2023-03-07T01:50:22.894Z,-1.79
2023-03-07T01:54:26.279Z,-1.98
2023-03-07T01:58:29.753Z,-2.11
2023-03-07T02:02:32.143Z,-2.22
2023-03-07T02:06:37.036Z,-2.31
2023-03-07T02:10:41.536Z,-2.42
2023-03-07T02:14:45.473Z,-2.60
2023-03-07T02:18:49.967Z,-2.73
2023-03-07T02:22:52.271Z,-2.90
2023-03-07T02:26:57.684Z,-3.05
2023-03-07T02:31:06.153Z,-3.15
2023-03-07T02:35:17.071Z,-3.32
2023-03-07T02:39:24.053Z,-3.41
2023-03-07T02:43:28.041Z,-3.55
2023-03-07T02:47:30.356Z,-3.66
2023-03-07T02:51:33.646Z,-3.79
2023-03-07T02:55:35.467Z,-3.91
2023-03-07T02:59:41.230Z,-4.02
2023-03-07T03:03:44.646Z,-4.13
2023-03-07T03:07:49.270Z,-4.27
2023-03-07T03:11:51.164Z,-4.39
2023-03-07T03:15:57.176Z,-4.54
2023-03-07T03:19:59.372Z,-4.65
2023-03-07T03:24:06.224Z,-4.80
2023-03-07T03:28:08.553Z,-4.90
2023-03-07T03:32:11.434Z,-5.01
2023-03-07T03:36:16.548Z,-5.10
2023-03-07T03:40:21.319Z,-5.09
2023-03-07T03:44:23.554Z,-5.20
2023-03-07T03:48:26.746Z,-5.28
2023-03-07T03:52:30.037Z,-5.49
2023-03-07T03:56:32.092Z,-5.55
2023-03-07T04:00:34.144Z,-5.67
2023-03-07T04:04:36.494Z,-5.77
2023-03-07T04:08:40.226Z,-5.94
2023-03-07T04:12:43.071Z,-5.96
2023-03-07T04:16:46.727Z,-6.01
2023-03-07T04:20:51.437Z,-6.12
2023-03-07T04:24:53.445Z,-6.20
2023-03-07T04:28:55.701Z,-6.23
2023-03-07T04:33:10.485Z,-6.35
2023-03-07T04:37:12.537Z,-6.37
2023-03-07T04:41:18.451Z,-5.76
2023-03-07T04:45:21.921Z,-5.29
2023-03-07T04:49:23.919Z,-4.98
2023-03-07T04:53:26.397Z,-4.86
2023-03-07T04:57:28.389Z,-4.90
2023-03-07T05:01:30.478Z,-4.83
2023-03-07T05:05:35.556Z,-4.82
2023-03-07T05:09:38.809Z,-4.67
2023-03-07T05:13:41.098Z,-4.72
2023-03-07T05:17:43.308Z,-4.80
2023-03-07T05:21:47.583Z,-4.83
2023-03-07T05:25:50.452Z,-4.93
2023-03-07T05:29:52.581Z,-5.01
2023-03-07T05:33:54.664Z,-4.96
2023-03-07T05:37:56.671Z,-4.86
2023-03-07T05:41:58.747Z,-5.01
2023-03-07T05:46:01.911Z,-4.87
2023-03-07T05:50:05.179Z,-4.62
2023-03-07T05:54:07.340Z,-4.66
2023-03-07T05:58:10.568Z,-4.66
2023-03-07T06:02:12.845Z,-4.63
2023-03-07T06:06:15.697Z,-4.85
2023-03-07T06:10:18.628Z,-4.88
2023-03-07T06:14:21.388Z,-4.79
2023-03-07T06:18:24.887Z,-4.64
2023-03-07T06:22:27.482Z,-4.49
2023-03-07T06:26:29.834Z,-4.13
2023-03-07T06:30:31.952Z,-4.33
2023-03-07T06:34:34.417Z,-4.42
2023-03-07T06:38:36.898Z,-4.22
2023-03-07T06:42:39.568Z,-4.50
2023-03-07T06:46:44.145Z,-4.33
2023-03-07T06:50:49.541Z,-4.36
2023-03-07T06:54:51.927Z,-4.24
2023-03-07T06:58:53.914Z,-4.18
2023-03-07T07:02:56.643Z,-4.09
2023-03-07T07:06:59.095Z,-3.53
2023-03-07T07:11:02.280Z,-3.67
2023-03-07T07:15:06.033Z,-3.39
2023-03-07T07:19:09.795Z,-2.96
2023-03-07T07:23:11.926Z,-2.95
2023-03-07T07:27:13.931Z,-3.06
2023-03-07T07:31:16.351Z,-3.39
2023-03-07T07:35:18.575Z,-3.27
2023-03-07T07:39:21.804Z,-2.95
2023-03-07T07:43:24.277Z,-2.83
2023-03-07T07:47:50.082Z,-2.42
2023-03-07T07:51:52.494Z,-2.77
2023-03-07T07:55:54.690Z,-2.94
2023-03-07T07:59:56.695Z,-2.67
2023-03-07T08:03:58.832Z,-2.51
2023-03-07T08:08:00.908Z,-2.30
2023-03-07T08:12:03.098Z,-2.27
2023-03-07T08:16:13.317Z,-2.34
2023-03-07T08:20:15.553Z,-2.22
2023-03-07T08:24:17.585Z,-2.17
2023-03-07T08:28:19.624Z,-2.02
2023-03-07T08:32:21.661Z,-2.05
2023-03-07T08:36:23.671Z,-1.98
2023-03-07T08:40:26.507Z,-1.73
2023-03-07T08:44:28.588Z,-1.60
2023-03-07T08:48:31.155Z,-1.31
2023-03-07T08:52:33.188Z,-1.23
2023-03-07T08:56:36.268Z,-0.96
2023-03-07T09:00:40.049Z,-0.73
2023-03-07T09:04:43.471Z,-0.49
2023-03-07T09:08:46.238Z,-0.31
2023-03-07T09:12:49.867Z,-0.06
2023-03-07T09:16:51.868Z,0.12
2023-03-07T09:20:53.795Z,0.31
2023-03-07T09:24:55.821Z,0.37
2023-03-07T09:28:57.804Z,0.87
2023-03-07T09:32:59.995Z,1.04
2023-03-07T09:37:02.036Z,0.98
2023-03-07T09:41:22.747Z,1.16
2023-03-07T09:45:30.898Z,1.03
2023-03-07T09:49:46.337Z,1.24
2023-03-07T09:53:52.182Z,1.03
2023-03-07T09:57:56.172Z,1.00
2023-03-07T10:02:12.911Z,1.34
2023-03-07T10:06:25.246Z,1.16
2023-03-07T10:10:38.751Z,1.36
2023-03-07T10:15:04.573Z,1.75
2023-03-07T10:19:23.895Z,1.83
2023-03-07T10:23:34.822Z,1.74
2023-03-07T10:27:38.314Z,1.67
2023-03-07T10:31:45.268Z,1.97
2023-03-07T10:35:55.032Z,2.12
2023-03-07T10:39:57.356Z,1.94
2023-03-07T10:43:59.404Z,2.03
2023-03-07T10:48:08.398Z,1.98
2023-03-07T10:52:35.807Z,2.01
2023-03-07T10:56:37.850Z,1.73
2023-03-07T11:00:40.519Z,2.18
2023-03-07T11:04:45.938Z,2.44
2023-03-07T11:08:47.892Z,2.63
2023-03-07T11:12:49.986Z,2.82
2023-03-07T11:16:56.792Z,2.96
2023-03-07T11:21:00.871Z,2.79
2023-03-07T11:25:08.820Z,2.87
2023-03-07T11:29:13.193Z,3.19
2023-03-07T11:33:25.025Z,3.33
2023-03-07T11:37:38.208Z,3.34
2023-03-07T11:41:44.719Z,3.51
2023-03-07T11:46:01.932Z,3.56
2023-03-07T11:50:24.028Z,3.78
2023-03-07T11:54:38.191Z,3.90
2023-03-07T11:59:01.912Z,4.01
2023-03-07T12:03:20.478Z,4.27
2023-03-07T12:08:00.102Z,4.53
2023-03-07T12:12:20.943Z,4.54
2023-03-07T12:16:47.668Z,4.79
2023-03-07T12:20:55.652Z,4.56
2023-03-07T12:25:04.485Z,4.82
2023-03-07T12:29:16.879Z,4.88
2023-03-07T12:33:38.062Z,5.12
2023-03-07T12:37:45.982Z,5.07
2023-03-07T12:42:17.386Z,5.18
2023-03-07T12:46:37.376Z,5.10
2023-03-07T12:51:00.131Z,5.18
2023-03-07T12:55:36.440Z,5.61
2023-03-07T12:59:42.471Z,5.50
2023-03-07T13:04:22.890Z,5.51
2023-03-07T13:08:25.532Z,5.21
2023-03-07T13:12:33.662Z,5.33
2023-03-07T13:16:44.166Z,5.19
2023-03-07T13:21:07.267Z,5.10
2023-03-07T13:25:26.609Z,5.25
2023-03-07T13:30:06.573Z,5.26
2023-03-07T13:34:46.794Z,5.18
2023-03-07T13:38:49.051Z,5.03
2023-03-07T13:42:52.063Z,5.01
2023-03-07T13:46:55.864Z,5.10
2023-03-07T13:51:00.940Z,4.83
2023-03-07T13:55:14.556Z,4.73
2023-03-07T13:59:24.530Z,4.76
2023-03-07T14:03:51.732Z,4.74
2023-03-07T14:07:54.012Z,4.64
2023-03-07T14:12:14.965Z,4.70
2023-03-07T14:16:55.992Z,4.73
2023-03-07T14:21:03.831Z,4.76
2023-03-07T14:25:16.110Z,4.76
2023-03-07T14:29:22.348Z,4.75
2023-03-07T14:33:33.049Z,4.81
2023-03-07T14:37:35.929Z,4.82
2023-03-07T14:41:52.647Z,4.87
2023-03-07T14:46:26.919Z,4.79
2023-03-07T14:50:31.368Z,4.71
2023-03-07T14:54:37.297Z,4.78
2023-03-07T14:58:58.210Z,4.67
2023-03-07T15:03:10.058Z,4.74
2023-03-07T15:07:21.405Z,4.72
2023-03-07T15:11:33.351Z,4.69
2023-03-07T15:15:42.413Z,4.71
2023-03-07T15:19:50.040Z,4.63
2023-03-07T15:23:55.145Z,4.65
2023-03-07T15:28:16.987Z,4.53
2023-03-07T15:32:45.587Z,4.61
2023-03-07T15:36:47.721Z,4.59
2023-03-07T15:40:50.067Z,4.49
2023-03-07T15:44:57.529Z,4.54
2023-03-07T15:48:59.641Z,4.49
2023-03-07T15:53:10.173Z,4.55
2023-03-07T15:57:18.925Z,4.49
2023-03-07T16:01:24.153Z,4.37
2023-03-07T16:05:29.134Z,4.35
2023-03-07T16:09:31.185Z,4.36
2023-03-07T16:13:40.223Z,4.32
2023-03-07T16:17:42.844Z,4.26
2023-03-07T16:21:45.306Z,4.24
2023-03-07T16:25:47.566Z,4.19
2023-03-07T16:29:50.363Z,4.13
2023-03-07T16:33:52.331Z,4.17
2023-03-07T16:37:55.377Z,4.08
2023-03-07T16:41:57.605Z,3.99
2023-03-07T16:46:05.471Z,3.99
2023-03-07T16:50:18.671Z,3.82
2023-03-07T16:54:20.694Z,3.71
2023-03-07T16:58:27.572Z,3.71
2023-03-07T17:02:29.758Z,3.76
2023-03-07T17:06:39.169Z,3.68
2023-03-07T17:10:44.517Z,3.61
2023-03-07T17:14:46.859Z,3.72
2023-03-07T17:18:48.831Z,3.60
2023-03-07T17:22:52.033Z,3.62
2023-03-07T17:26:55.003Z,3.58
2023-03-07T17:30:57.034Z,3.61
2023-03-07T17:34:59.127Z,3.58
2023-03-07T17:39:01.167Z,3.62
2023-03-07T17:43:04.304Z,3.68
2023-03-07T17:47:06.128Z,3.68
2023-03-07T17:51:11.438Z,3.69
2023-03-07T17:55:15.147Z,3.78
2023-03-07T17:59:17.103Z,3.77
2023-03-07T18:03:19.160Z,3.74
2023-03-07T18:07:21.844Z,3.79
2023-03-07T18:11:23.896Z,3.76
2023-03-07T18:15:27.710Z,3.77
2023-03-07T18:19:30.210Z,3.86
2023-03-07T18:23:34.088Z,3.78
2023-03-07T18:27:36.529Z,3.85
2023-03-07T18:31:39.193Z,3.98
2023-03-07T18:35:43.456Z,4.01
2023-03-07T18:39:45.692Z,4.14
2023-03-07T18:43:48.133Z,4.06
2023-03-07T18:47:50.732Z,4.07
2023-03-07T18:51:57.967Z,4.19
2023-03-07T18:56:05.914Z,4.13
2023-03-07T19:00:11.391Z,4.08
2023-03-07T19:04:13.417Z,4.19
2023-03-07T19:08:16.712Z,4.23
2023-03-07T19:12:18.251Z,4.39
2023-03-07T19:16:23.622Z,4.49
2023-03-07T19:20:27.263Z,4.53
2023-03-07T19:24:29.315Z,4.43
2023-03-07T19:28:31.380Z,4.47
2023-03-07T19:32:33.468Z,4.51
2023-03-07T19:36:36.927Z,4.51
2023-03-07T19:40:38.926Z,4.55
2023-03-07T19:44:40.938Z,4.61
2023-03-07T19:48:46.034Z,4.57
2023-03-07T19:52:48.005Z,4.51
2023-03-07T19:56:49.679Z,4.52
2023-03-07T20:00:51.579Z,4.55
2023-03-07T20:04:55.474Z,4.58
2023-03-07T20:08:58.839Z,4.54
2023-03-07T20:13:00.932Z,4.44
2023-03-07T20:17:02.949Z,4.59
2023-03-07T20:21:07.254Z,4.34
2023-03-07T20:25:09.977Z,4.43
2023-03-07T20:29:12.096Z,4.44
2023-03-07T20:33:14.648Z,4.51
2023-03-07T20:37:16.555Z,4.57
2023-03-07T20:41:20.993Z,4.45
2023-03-07T20:45:23.025Z,4.36
2023-03-07T20:49:24.972Z,4.30
2023-03-07T20:53:26.995Z,4.23
2023-03-07T20:57:28.910Z,4.21
2023-03-07T21:01:33.174Z,4.16
2023-03-07T21:05:35.714Z,4.04
2023-03-07T21:09:37.672Z,3.86
2023-03-07T21:13:41.847Z,3.93
2023-03-07T21:17:43.882Z,3.93
2023-03-07T21:21:45.863Z,3.88
2023-03-07T21:25:47.853Z,3.88
2023-03-07T21:29:49.761Z,3.91
2023-03-07T21:33:54.159Z,3.91
2023-03-07T21:37:56.460Z,3.94
2023-03-07T21:41:58.476Z,3.93
2023-03-07T21:46:09.367Z,4.01
2023-03-07T21:50:11.508Z,3.97
2023-03-07T21:54:13.530Z,4.08
2023-03-07T21:58:15.495Z,4.04
2023-03-07T22:02:17.482Z,4.02
2023-03-07T22:06:20.119Z,4.04
2023-03-07T22:10:22.026Z,4.04
2023-03-07T22:14:24.083Z,4.12
2023-03-07T22:18:26.571Z,4.16
2023-03-07T22:22:28.599Z,4.11
2023-03-07T22:26:31.564Z,4.12
2023-03-07T22:30:33.538Z,3.92
2023-03-07T22:34:35.699Z,3.85
2023-03-07T22:38:37.678Z,3.60
2023-03-07T22:42:39.777Z,3.52
2023-03-07T22:46:41.807Z,3.31
2023-03-07T22:50:43.947Z,2.53
2023-03-07T22:54:45.962Z,1.89
2023-03-07T22:58:48.323Z,1.46
2023-03-07T23:02:50.252Z,1.35
2023-03-07T23:06:52.174Z,1.09
2023-03-07T23:11:03.867Z,1.06
2023-03-07T23:15:06.382Z,0.91
2023-03-07T23:19:08.723Z,0.89
2023-03-07T23:23:10.641Z,0.89
2023-03-07T23:27:12.667Z,0.83
2023-03-07T23:31:20.505Z,0.77
2023-03-07T23:35:23.290Z,0.69
2023-03-07T23:39:25.439Z,0.69
2023-03-07T23:43:27.535Z,0.64
2023-03-07T23:47:29.444Z,0.64
2023-03-07T23:51:31.528Z,0.58
2023-03-07T23:55:33.662Z,0.52
2023-03-07T23:59:35.583Z,0.52
